Terminal Aerodrome Forecast
Issued by NWS

Home | Current Version | Previous Version | Text Only | Print | Product List | Glossary On
Versions: 1 2 3 4 5 6 7 8 9 10 11 12 13 14 15 16 17 18 19
000
FTUS41 KPHI 291700
TAFMIV
TAF
KMIV 291720Z 2918/3018 15006KT P6SM OVC100
     FM300100 14005KT 5SM -SNRA OVC020
     FM300300 17006KT P6SM OVC040
     FM301000 22004KT 6SM -SHSN OVC025
     FM301200 29008KT P6SM SCT015 OVC040
     FM301400 31016G28KT P6SM BKN040=

USA.gov is the U.S. government's official web portal to all federal, state and local government web resources and services.